Tropical Cyclones
[Index]
Main Index Home Page Stock Weather Photos Extreme Storms Discussion Storm News and Storm Chasing Reports Tropical Cyclones / Hurricanes / Typhoons Weather Data and Links Wild Fires / Bushfires Weather Observation Techniques Weather Picture Catalogue Tornado Pictures and Reports Stock Video Footage and DVDs for sale
Season 2016-2017 Tropical Cyclone YVETTE Track Map
Season 2016-2017 Summaries: [BoM-AU]
<<- Previous TC | BoM 2016-2017 Season | Next TC ->>

click for intensity scale information  Lat/long Grid: Show Hide

 Date Labels: Show Hide

Bureau of Meteorology Tropical Cyclone Data

Name: YVETTE
Number: 995 / 201617_07

18 Dec 2016 12:00 UTC to 25 Dec 2016 06:00 UTC

    date/time    lat    long    hPa   cat  kts
2016-12-18 12   14.8   116.0    998         30          
2016-12-18 18   14.9   115.5    998         30          
2016-12-19 00   15.2   115.2    998         30          
2016-12-19 06   16.0   114.9    995    1    35          
2016-12-19 12   15.7   114.7    995    1    35          
2016-12-19 18   15.6   113.5    996         35          
2016-12-20 00   14.8   113.2    996         35          
2016-12-20 06   14.4   113.9    993    1    35          
2016-12-20 12   14.3   114.3    993    1    35          
2016-12-20 18   14.6   113.9    993    1    35          
2016-12-21 00   14.5   114.0    992    1    35          
2016-12-21 06   14.5   114.0    987    1    40          
2016-12-21 12   14.2   114.2    991    1    40          
2016-12-21 18   14.4   114.3    990    1    40          
2016-12-22 00   14.4   114.4    990    1    40          
2016-12-22 06   14.3   114.4    990    1    40          
2016-12-22 12   14.4   114.5    990    1    40          
2016-12-22 18   14.3   114.6    990    1    35          
2016-12-23 00   14.3   115.2    992    1    35          
2016-12-23 06   14.7   116.0    994    1    30          
2016-12-23 12   14.8   116.6    993    1    35          
2016-12-23 18   14.9   117.8    992    1    35          
2016-12-24 00   15.3   118.7    993    1    35          
2016-12-24 06   16.0   119.5    993    1    35          
2016-12-24 12   16.7   119.9    993    1    35          
2016-12-24 18   17.3   120.6    993    1    35          
2016-12-25 00   17.6   121.5    994    1    30          
2016-12-25 06   17.7   122.6    996         20          
Winds are 10-min average.

Tropical cyclone tracks developed by Michael Bath using data from the Bureau of Meteorology and Google Maps.


[Australian Severe Weather index] [Copyright Notice] [Email Contacts] [Search This Site] [Privacy Policy]
Document: tropical_cyclone_yvette.htm Updated: 29 June 2017